RJSC/GAJ METAR and TAF weather

Enter ICAO airport designator
Station Type Date Time Source
RJSC METAR 2021/09/24 03:00 UTC NOAA

RJSC 240300Z 35006KT 290V030 9999 FEW025 SCT040 BKN060 23/18 Q1019


Station Type Date Time Source
RJSC Decoded METAR 2021/09/24 03:00 UTC NOAA

Yamagata Airport, Japan (RJSC) 38-25N 140-22E 108M
Sep 23, 2021 - 11:00 PM EDT / 2021.09.24 0300 UTC
Wind: from the N (350 degrees) at 7 MPH (6 KT) (direction variable):0
Visibility: greater than 7 mile(s):0
Sky conditions: mostly cloudy
Temperature: 73 F (23 C)
Dew Point: 64 F (18 C)
Relative Humidity: 73%
Pressure (altimeter): 30.09 in. Hg (1019 hPa)
ob: RJSC 240300Z 35006KT 290V030 9999 FEW025 SCT040 BKN060 23/18 Q1019
cycle: 3

Station Type Date Time Source
RJSC TAF UTC NOAA

Error!

Example: see airport list